Time;durP1;ratioP1;P1;durP2;ratioP2;P2;SDS_P1;SDS_P2;PMS_P1;PMS_P2;Temp;Humidity;BMP_temperature;BMP_pressure;BME280_temperature;BME280_humidity;BME280_pressure;Samples;Min_cycle;Max_cycle;Signal;HPM_P1;HPM_P2
2021/06/10 04:57:41;;;;;;;7.45;6.78;;;;;;;20.51;69.53;99541.84;1853845;75;22320;-74
2021/06/10 05:00:09;;;;;;;7.45;6.75;;;;;;;20.48;69.76;99540.35;1817549;78;20898;-73
2021/06/10 05:02:37;;;;;;;7.05;6.45;;;;;;;20.58;69.73;99550.30;1816207;78;21137;-73
2021/06/10 05:05:10;;;;;;;7.80;6.92;;;;;;;20.71;69.44;99555.14;1779492;80;20997;-72
2021/06/10 05:07:37;;;;;;;7.80;7.05;;;;;;;20.74;69.58;99553.98;1815581;76;20879;-73
2021/06/10 05:10:06;;;;;;;7.62;6.83;;;;;;;21.02;69.60;99565.92;1823416;76;21483;-71
2021/06/10 05:12:36;;;;;;;7.40;6.67;;;;;;;21.02;69.60;99565.92;1820799;76;21484;-73
2021/06/10 05:15:06;;;;;;;10.13;7.47;;;;;;;21.20;68.28;99554.66;1813766;78;21054;-72
2021/06/10 05:17:34;;;;;;;8.23;7.28;;;;;;;21.19;68.15;99557.50;1810621;78;20945;-74
2021/06/10 05:20:01;;;;;;;10.18;7.70;;;;;;;21.13;68.41;99562.95;1825111;77;21047;-74
2021/06/10 05:22:28;;;;;;;7.78;7.08;;;;;;;21.03;68.36;99570.22;1817982;78;21493;-74
2021/06/10 05:24:57;;;;;;;12.00;8.48;;;;;;;20.45;69.58;99571.09;1762927;80;21548;-74
2021/06/10 05:27:24;;;;;;;9.10;8.03;;;;;;;20.45;69.58;99571.09;1823358;78;21014;-73
2021/06/10 05:29:51;;;;;;;9.08;8.28;;;;;;;20.08;70.85;99575.87;1814564;78;21019;-72
2021/06/10 05:32:19;;;;;;;9.88;8.73;;;;;;;19.71;72.03;99575.67;1828174;77;20995;-72
2021/06/10 05:34:46;;;;;;;11.18;9.85;;;;;;;19.51;72.93;99580.83;1820597;77;20945;-72
2021/06/10 05:37:13;;;;;;;10.08;9.08;;;;;;;19.28;73.49;99580.44;1808535;77;21389;-72
2021/06/10 05:39:40;;;;;;;12.55;9.80;;;;;;;19.11;74.26;99583.45;1804109;77;21166;-71
2021/06/10 05:42:10;;;;;;;9.98;8.98;;;;;;;18.91;75.03;99584.56;1840093;77;21411;-72
2021/06/10 05:44:37;;;;;;;11.30;10.28;;;;;;;18.73;75.86;99587.20;1816738;78;21595;-70
2021/06/10 05:47:06;;;;;;;9.65;8.33;;;;;;;18.56;76.62;99591.44;1833932;77;20957;-71
2021/06/10 05:49:33;;;;;;;9.05;8.25;;;;;;;18.41;77.56;99586.30;1832880;77;20973;-71
2021/06/10 05:52:00;;;;;;;10.85;9.55;;;;;;;18.23;78.38;99594.18;1805751;78;21670;-71
2021/06/10 05:54:27;;;;;;;11.20;9.20;;;;;;;18.08;79.35;99592.98;1797826;78;20886;-70
2021/06/10 05:56:55;;;;;;;10.53;9.40;;;;;;;18.01;80.04;99594.53;1809982;78;20922;-70
2021/06/10 05:59:22;;;;;;;10.25;9.35;;;;;;;18.00;80.61;99600.28;1800374;79;21406;-71
2021/06/10 06:01:49;;;;;;;9.73;8.83;;;;;;;17.98;80.85;99594.36;1800209;79;21010;-70
2021/06/10 06:04:17;;;;;;;10.50;9.53;;;;;;;18.00;81.28;99593.70;1805558;78;21266;-70
2021/06/10 06:06:45;;;;;;;10.58;9.45;;;;;;;18.08;81.22;99590.34;1730728;81;20902;-70
2021/06/10 06:09:12;;;;;;;9.65;8.63;;;;;;;18.17;80.97;99589.97;1764433;80;21446;-71
2021/06/10 06:11:41;;;;;;;9.30;8.45;;;;;;;18.27;80.88;99585.50;1760280;80;21482;-70
2021/06/10 06:14:10;;;;;;;9.18;8.38;;;;;;;18.37;80.33;99590.73;1753223;80;21007;-71
2021/06/10 06:16:42;;;;;;;9.05;8.25;;;;;;;18.42;79.99;99590.59;1755461;80;21002;-71
2021/06/10 06:19:12;;;;;;;9.65;8.75;;;;;;;18.48;79.41;99597.09;1754395;80;20978;-71
2021/06/10 06:21:41;;;;;;;8.58;7.85;;;;;;;18.53;79.03;99597.48;1763909;80;20955;-71
2021/06/10 06:24:10;;;;;;;9.43;8.53;;;;;;;18.60;78.96;99595.95;1736203;80;20986;-71
2021/06/10 06:26:39;;;;;;;9.08;8.18;;;;;;;18.68;78.44;99603.97;1762861;80;21506;-72
2021/06/10 06:29:08;;;;;;;8.93;8.23;;;;;;;18.78;78.32;99606.55;1764856;80;21263;-72
2021/06/10 06:31:37;;;;;;;9.23;8.35;;;;;;;18.88;77.60;99600.69;1771907;80;21013;-71
2021/06/10 06:34:04;;;;;;;9.28;7.90;;;;;;;18.93;77.39;99605.03;1763715;80;21025;-72
2021/06/10 06:36:31;;;;;;;10.40;9.35;;;;;;;18.89;77.10;99604.50;1765681;80;20966;-71
2021/06/10 06:38:59;;;;;;;10.28;9.38;;;;;;;18.77;77.46;99604.40;1754012;80;20959;-72
2021/06/10 06:41:26;;;;;;;9.78;8.85;;;;;;;18.65;77.82;99605.09;1756549;80;21087;-70
2021/06/10 06:43:54;;;;;;;10.82;9.65;;;;;;;18.54;78.39;99599.98;1753271;81;21649;-71
2021/06/10 06:46:21;;;;;;;10.55;9.65;;;;;;;18.47;78.94;99605.98;1723770;81;21040;-71
2021/06/10 06:48:49;;;;;;;10.85;9.65;;;;;;;18.39;79.53;99604.11;1753686;80;20986;-71
2021/06/10 06:51:16;;;;;;;11.08;9.98;;;;;;;18.38;80.06;99609.52;1771717;80;21021;-69
2021/06/10 06:53:43;;;;;;;11.83;10.65;;;;;;;18.36;80.39;99612.30;1766792;80;21992;-72
2021/06/10 06:56:10;;;;;;;11.00;9.90;;;;;;;18.33;80.61;99612.10;1728354;81;22999;-71
2021/06/10 06:58:38;;;;;;;12.58;10.70;;;;;;;18.31;80.84;99615.86;1757450;81;21492;-72
2021/06/10 07:01:05;;;;;;;11.12;10.08;;;;;;;18.31;81.04;99621.96;1739912;81;20950;-70
2021/06/10 07:03:32;;;;;;;11.38;10.00;;;;;;;18.34;81.08;99619.52;1744484;81;20887;-71
2021/06/10 07:05:59;;;;;;;11.08;9.98;;;;;;;18.34;81.29;99628.75;1726124;81;22095;-70
2021/06/10 07:08:29;;;;;;;11.45;10.35;;;;;;;18.32;81.29;99634.66;1733581;82;21532;-69
2021/06/10 07:10:56;;;;;;;11.85;10.75;;;;;;;18.30;81.31;99633.48;1812988;78;20946;-70
2021/06/10 07:13:24;;;;;;;11.80;10.63;;;;;;;18.30;81.38;99635.28;1809328;78;20949;-72
2021/06/10 07:15:53;;;;;;;10.95;9.90;;;;;;;18.28;81.25;99639.38;1825419;77;21362;-71
2021/06/10 07:18:20;;;;;;;12.07;10.98;;;;;;;18.31;81.54;99640.90;1824895;77;21112;-70
2021/06/10 07:20:49;;;;;;;11.03;9.93;;;;;;;18.39;81.58;99642.81;1808212;78;20946;-71
2021/06/10 07:23:16;;;;;;;11.33;10.23;;;;;;;18.46;81.46;99635.47;1808573;79;20962;-70
2021/06/10 07:25:43;;;;;;;9.90;8.85;;;;;;;18.55;80.92;99641.19;1801155;78;21527;-71
2021/06/10 07:28:11;;;;;;;10.90;9.40;;;;;;;18.63;80.68;99640.50;1807436;78;20977;-71
2021/06/10 07:30:39;;;;;;;9.78;8.88;;;;;;;18.77;80.17;99636.55;1802322;78;21514;-71
2021/06/10 07:33:06;;;;;;;10.40;9.30;;;;;;;18.93;79.59;99639.34;1793157;78;21656;-71
2021/06/10 07:35:34;;;;;;;9.35;8.53;;;;;;;19.11;78.96;99633.59;1826814;78;20882;-69
2021/06/10 07:38:03;;;;;;;9.48;8.68;;;;;;;19.37;78.10;99642.06;1822729;77;20969;-70
2021/06/10 07:40:30;;;;;;;9.13;8.35;;;;;;;19.66;76.73;99641.34;1794623;80;20934;-71
2021/06/10 07:42:57;;;;;;;10.38;9.10;;;;;;;20.03;75.44;99645.05;1808871;78;21088;-71
2021/06/10 07:45:28;;;;;;;8.78;7.80;;;;;;;20.36;73.99;99644.77;1816175;78;20938;-71
2021/06/10 07:47:56;;;;;;;9.15;8.25;;;;;;;20.60;72.80;99644.06;1816130;78;20994;-70
2021/06/10 07:50:23;;;;;;;9.60;7.22;;;;;;;20.85;72.08;99639.16;1818230;78;20930;-71
2021/06/10 07:52:50;;;;;;;8.95;7.80;;;;;;;21.17;71.32;99642.89;1819373;78;21013;-71
2021/06/10 07:55:21;;;;;;;8.35;7.55;;;;;;;21.47;69.21;99645.42;1806270;78;21128;-71
2021/06/10 07:57:51;;;;;;;7.95;7.15;;;;;;;21.62;68.39;99641.92;1811565;78;20973;-71
2021/06/10 08:00:18;;;;;;;8.85;7.53;;;;;;;21.71;68.10;99649.38;1763787;80;21521;-71
2021/06/10 08:02:45;;;;;;;7.60;6.90;;;;;;;21.81;67.83;99648.71;1762577;80;20939;-70
2021/06/10 08:05:14;;;;;;;11.55;8.50;;;;;;;21.87;66.10;99648.05;1770109;80;21473;-71
2021/06/10 08:07:42;;;;;;;9.83;8.65;;;;;;;21.79;66.37;99649.38;1752247;81;20986;-71
2021/06/10 08:10:13;;;;;;;9.05;8.28;;;;;;;21.75;66.80;99641.92;1761668;80;21508;-71
2021/06/10 08:12:40;;;;;;;8.08;7.37;;;;;;;21.79;66.37;99648.05;1736569;82;20896;-69
2021/06/10 08:15:07;;;;;;;8.60;7.65;;;;;;;21.82;66.50;99649.04;1717288;83;21018;-71
2021/06/10 08:17:35;;;;;;;8.95;8.05;;;;;;;21.87;66.06;99644.07;1723847;81;21041;-71
2021/06/10 08:20:05;;;;;;;12.43;10.68;;;;;;;21.94;65.23;99650.36;1763192;81;21157;-72
2021/06/10 08:22:33;;;;;;;11.15;9.15;;;;;;;21.95;65.71;99646.71;1758285;80;20912;-70
2021/06/10 08:25:02;;;;;;;8.95;8.05;;;;;;;21.96;65.43;99647.54;1755787;80;21406;-70
2021/06/10 08:27:30;;;;;;;8.58;7.87;;;;;;;21.92;65.33;99646.22;1752111;80;21505;-70
2021/06/10 08:29:57;;;;;;;9.20;8.30;;;;;;;21.85;65.20;99648.71;1774231;80;21501;-70
2021/06/10 08:32:25;;;;;;;9.53;8.38;;;;;;;21.81;65.55;99643.91;1752589;80;21916;-70
2021/06/10 08:34:52;;;;;;;9.45;8.53;;;;;;;21.84;65.88;99637.78;1773921;80;20974;-72
2021/06/10 08:37:19;;;;;;;8.98;8.10;;;;;;;21.95;65.71;99644.06;1775226;80;20986;-72
2021/06/10 08:39:46;;;;;;;8.00;7.30;;;;;;;22.16;65.34;99640.05;1739701;81;20959;-67
2021/06/10 08:42:15;;;;;;;10.00;7.50;;;;;;;22.37;64.56;99629.72;1752605;80;21349;-77
2021/06/10 08:44:43;;;;;;;8.15;7.40;;;;;;;22.58;63.50;99628.63;1751246;81;21080;-72
2021/06/10 08:47:12;;;;;;;10.30;7.60;;;;;;;22.74;63.36;99628.23;1766085;80;21579;-75
2021/06/10 08:49:44;;;;;;;9.23;7.53;;;;;;;22.86;62.62;99621.53;1758559;81;20954;-73
2021/06/10 08:52:08;;;;;;;8.18;7.35;;;;;;;23.04;61.86;99627.41;1750305;82;20990;-75
2021/06/10 08:54:37;;;;;;;8.18;7.42;;;;;;;23.17;61.09;99636.95;1758175;80;20870;-74
2021/06/10 08:57:08;;;;;;;9.78;7.60;;;;;;;23.13;61.10;99634.83;1750296;80;21989;-73
2021/06/10 08:59:35;;;;;;;8.15;7.45;;;;;;;23.06;61.22;99626.73;1774040;80;21018;-75
2021/06/10 09:02:02;;;;;;;7.83;7.12;;;;;;;23.04;61.61;99631.39;1761044;80;20943;-75
2021/06/10 09:04:30;;;;;;;7.90;7.20;;;;;;;23.04;61.31;99622.59;1785083;80;20967;-76
2021/06/10 09:07:00;;;;;;;7.83;7.12;;;;;;;23.10;61.28;99621.89;1753652;81;20962;-75
2021/06/10 09:09:40;;;;;;;8.80;6.75;;;;;;;23.17;60.93;99621.52;1753586;80;21093;-75
2021/06/10 09:12:10;;;;;;;11.25;8.18;;;;;;;23.26;60.93;99615.94;1753397;81;21569;-73
2021/06/10 09:14:59;;;;;;;7.67;6.97;;;;;;;23.37;60.08;99622.67;1753154;81;20943;-74
2021/06/10 09:17:35;;;;;;;7.65;6.90;;;;;;;23.38;59.78;99625.66;1764809;80;21014;-71
2021/06/10 09:20:06;;;;;;;7.42;6.67;;;;;;;23.43;59.65;99621.14;1773473;80;20990;-72
2021/06/10 09:22:36;;;;;;;7.33;6.72;;;;;;;23.48;59.23;99613.46;1763487;80;21816;-73
2021/06/10 09:25:10;;;;;;;7.45;6.75;;;;;;;23.63;58.40;99614.84;1753424;81;21019;-72
2021/06/10 09:27:57;;;;;;;9.15;6.47;;;;;;;23.75;58.05;99605.42;1756453;80;20978;-72
2021/06/10 09:30:37;;;;;;;14.73;7.90;;;;;;;23.90;58.20;99597.80;1765801;80;21513;-72
2021/06/10 09:33:11;;;;;;;7.83;7.12;;;;;;;24.13;57.69;99603.02;1760246;80;20970;-73
2021/06/10 09:35:41;;;;;;;7.08;6.47;;;;;;;24.21;57.04;99600.77;1753389;80;21678;-72
2021/06/10 09:38:15;;;;;;;7.40;6.67;;;;;;;24.25;57.01;99599.43;1762898;80;21473;-72
2021/06/10 09:40:44;;;;;;;7.33;6.62;;;;;;;24.25;56.46;99595.44;1753447;81;21549;-73
2021/06/10 09:43:13;;;;;;;8.50;6.65;;;;;;;24.23;56.58;99589.45;1754038;81;20917;-72
2021/06/10 09:45:49;;;;;;;6.80;6.10;;;;;;;24.33;56.11;99584.70;1754620;80;20895;-73
2021/06/10 09:48:15;;;;;;;10.08;6.72;;;;;;;24.45;55.33;99579.70;1766328;80;21146;-74
2021/06/10 09:50:43;;;;;;;7.00;6.40;;;;;;;24.51;55.58;99583.78;1754250;80;21465;-74
2021/06/10 09:53:23;;;;;;;6.10;5.60;;;;;;;24.53;55.67;99579.61;1739369;81;21420;-73
2021/06/10 09:56:02;;;;;;;5.90;5.30;;;;;;;24.52;54.01;99586.77;1762207;80;20947;-75
2021/06/10 09:58:33;;;;;;;5.87;5.47;;;;;;;24.35;54.16;99583.19;1753832;80;20995;-74
2021/06/10 10:01:14;;;;;;;5.62;5.22;;;;;;;24.23;54.59;99583.63;1754680;80;21164;-75
2021/06/10 10:03:45;;;;;;;5.42;5.03;;;;;;;24.14;54.19;99583.39;1729333;82;20937;-75
2021/06/10 10:06:27;;;;;;;8.28;5.80;;;;;;;24.14;55.05;99574.58;1823644;78;20923;-72
2021/06/10 10:08:57;;;;;;;5.85;5.35;;;;;;;24.21;55.02;99571.51;1816077;78;20930;-72
2021/06/10 10:11:25;;;;;;;6.15;5.62;;;;;;;24.34;54.27;99565.57;1821467;78;20938;-73
2021/06/10 10:13:55;;;;;;;5.55;4.83;;;;;;;24.42;54.18;99566.77;1821336;78;21164;-73
2021/06/10 10:16:28;;;;;;;7.10;5.35;;;;;;;24.50;53.92;99563.50;1751874;82;20918;-74
2021/06/10 10:18:58;;;;;;;6.60;6.00;;;;;;;24.56;53.72;99566.75;1775707;80;20943;-74
2021/06/10 10:21:29;;;;;;;7.33;6.40;;;;;;;24.52;54.14;99569.97;1774103;80;21040;-74
2021/06/10 10:24:02;;;;;;;9.38;6.53;;;;;;;24.34;55.10;99567.73;1749966;81;21541;-74
2021/06/10 10:26:29;;;;;;;7.83;6.37;;;;;;;24.21;54.78;99575.50;1820559;78;21747;-74
2021/06/10 10:28:58;;;;;;;10.70;6.08;;;;;;;24.04;55.50;99564.72;1820839;78;21029;-72
2021/06/10 10:31:28;;;;;;;7.25;6.55;;;;;;;23.94;56.30;99572.49;1820291;78;20879;-74
2021/06/10 10:33:56;;;;;;;6.22;5.70;;;;;;;23.99;56.95;99568.46;1821678;78;20926;-73
2021/06/10 10:36:36;;;;;;;6.30;5.72;;;;;;;24.15;57.23;99564.27;1750700;82;20970;-73
2021/06/10 10:39:07;;;;;;;6.25;5.75;;;;;;;24.37;56.67;99559.87;1770700;80;21167;-72
2021/06/10 10:41:51;;;;;;;6.20;5.67;;;;;;;24.62;56.13;99557.70;1775286;80;20978;-72
2021/06/10 10:44:24;;;;;;;6.53;5.85;;;;;;;24.71;54.55;99554.73;1820148;78;20969;-74
2021/06/10 10:47:05;;;;;;;8.25;6.22;;;;;;;24.59;55.42;99557.05;1819515;78;20887;-73
2021/06/10 10:49:51;;;;;;;8.40;5.90;;;;;;;24.59;55.62;99555.73;1752133;82;21468;-74
2021/06/10 10:52:30;;;;;;;6.25;5.75;;;;;;;24.69;55.38;99551.44;1747995;82;21124;-74
2021/06/10 10:55:20;;;;;;;6.90;5.40;;;;;;;24.77;53.90;99551.33;1798398;78;21027;-73
2021/06/10 10:58:06;;;;;;;6.00;5.50;;;;;;;24.65;54.07;99553.33;1809560;77;21001;-73
2021/06/10 11:00:56;;;;;;;5.58;5.08;;;;;;;24.55;54.63;99547.80;1758210;80;21533;-73
2021/06/10 11:03:35;;;;;;;5.80;5.20;;;;;;;24.48;54.44;99550.88;1759009;80;21397;-74
2021/06/10 11:06:28;;;;;;;5.83;5.33;;;;;;;24.18;55.08;99553.25;1764797;80;21067;-74
2021/06/10 11:09:15;;;;;;;5.05;4.67;;;;;;;23.92;56.32;99551.08;1724048;81;20871;-75
2021/06/10 11:12:00;;;;;;;5.37;4.87;;;;;;;23.73;56.88;99550.28;1759876;80;20942;-73
2021/06/10 11:14:50;;;;;;;6.37;3.67;;;;;;;23.60;56.95;99544.25;1712747;81;21060;-73
2021/06/10 11:17:32;;;;;;;4.08;3.50;;;;;;;23.56;55.67;99550.97;1758664;80;20906;-72
2021/06/10 11:20:06;;;;;;;4.62;3.77;;;;;;;23.46;55.37;99551.69;1757449;81;21725;-73
2021/06/10 11:22:50;;;;;;;4.65;3.62;;;;;;;23.36;55.40;99549.28;1731890;82;20912;-74
2021/06/10 11:25:32;;;;;;;3.60;3.37;;;;;;;23.22;55.02;99545.58;1725793;80;21010;-73
2021/06/10 11:28:10;;;;;;;3.58;3.37;;;;;;;23.13;55.91;99541.86;1790491;78;20947;-74
2021/06/10 11:30:39;;;;;;;5.90;3.65;;;;;;;23.14;55.84;99550.16;1791134;79;20998;-74
2021/06/10 11:33:10;;;;;;;3.95;3.58;;;;;;;23.17;55.31;99551.13;1802009;77;21174;-75
2021/06/10 11:35:47;;;;;;;4.05;3.75;;;;;;;23.19;55.23;99553.90;1728857;80;21011;-75
2021/06/10 11:38:22;;;;;;;3.83;3.50;;;;;;;23.21;55.18;99553.22;1734323;82;21431;-74
2021/06/10 11:41:01;;;;;;;3.60;3.30;;;;;;;23.17;55.42;99545.81;1735933;80;20982;-73
2021/06/10 11:43:32;;;;;;;4.08;3.72;;;;;;;23.09;55.40;99558.66;1749340;82;21494;-73
2021/06/10 11:46:03;;;;;;;4.45;4.05;;;;;;;23.06;55.94;99559.01;1737059;80;21110;-72
2021/06/10 11:48:45;;;;;;;4.50;4.10;;;;;;;23.12;57.03;99545.02;1764223;80;21038;-73
2021/06/10 11:51:30;;;;;;;4.60;4.30;;;;;;;23.28;57.01;99547.52;1776385;78;21533;-74
2021/06/10 11:54:08;;;;;;;4.47;3.85;;;;;;;23.45;57.36;99546.05;1730790;80;20978;-74
2021/06/10 11:56:38;;;;;;;4.70;4.30;;;;;;;23.49;57.18;99538.88;1764882;78;20979;-74
2021/06/10 11:59:29;;;;;;;5.33;3.70;;;;;;;23.49;57.59;99541.53;1766926;80;21845;-75
2021/06/10 12:02:03;;;;;;;3.92;3.62;;;;;;;23.53;57.38;99540.70;1771296;78;20970;-69
2021/06/10 12:04:32;;;;;;;4.10;3.80;;;;;;;23.59;55.96;99535.99;1774465;79;20911;-68
2021/06/10 12:07:09;;;;;;;3.58;3.37;;;;;;;23.65;55.55;99531.75;1770372;80;20937;-69
2021/06/10 12:09:55;;;;;;;4.58;4.08;;;;;;;23.72;54.63;99528.19;1770079;80;20986;-68
2021/06/10 12:12:42;;;;;;;4.67;3.92;;;;;;;23.78;54.59;99538.09;1759902;80;21158;-69
2021/06/10 12:15:29;;;;;;;4.95;4.53;;;;;;;23.88;55.32;99533.84;1781859;80;20939;-68
2021/06/10 12:18:09;;;;;;;5.42;5.03;;;;;;;23.91;56.08;99540.12;1766949;80;20966;-68
2021/06/10 12:20:41;;;;;;;5.72;5.22;;;;;;;23.77;56.37;99532.95;1765593;80;21490;-69
2021/06/10 12:23:21;;;;;;;5.67;5.08;;;;;;;23.52;55.82;99540.34;1764147;78;20997;-70
2021/06/10 12:25:54;;;;;;;5.30;4.80;;;;;;;23.25;56.32;99545.22;1759315;80;21232;-68
2021/06/10 12:28:35;;;;;;;5.58;5.08;;;;;;;23.05;56.96;99536.61;1775530;80;21643;-69
2021/06/10 12:31:10;;;;;;;5.15;4.70;;;;;;;22.99;57.43;99536.81;1771044;80;20951;-69
2021/06/10 12:33:37;;;;;;;6.42;4.42;;;;;;;23.02;57.86;99529.83;1751064;82;20979;-69
2021/06/10 12:36:07;;;;;;;4.85;4.53;;;;;;;23.06;57.79;99541.74;1790478;79;21504;-69
2021/06/10 12:38:37;;;;;;;4.58;4.20;;;;;;;23.05;57.87;99536.61;1764063;80;20978;-69
2021/06/10 12:41:30;;;;;;;3.87;3.50;;;;;;;22.97;56.90;99528.20;1759267;81;20868;-69
2021/06/10 12:44:31;;;;;;;4.08;3.55;;;;;;;22.90;55.91;99537.88;1759546;81;21489;-67
2021/06/10 12:47:01;;;;;;;3.70;3.40;;;;;;;22.85;55.00;99532.27;1733586;82;20967;-71
2021/06/10 12:49:44;;;;;;;4.20;3.80;;;;;;;22.82;54.84;99529.47;1759162;80;20966;-69
2021/06/10 12:52:28;;;;;;;7.42;3.85;;;;;;;22.76;56.20;99533.31;1758707;81;21209;-69
2021/06/10 12:54:59;;;;;;;6.37;4.45;;;;;;;22.70;56.75;99538.83;1757523;80;20894;-70
2021/06/10 12:57:35;;;;;;;5.67;3.45;;;;;;;22.73;57.15;99538.48;1751031;82;20962;-69
2021/06/10 13:00:11;;;;;;;7.05;4.53;;;;;;;22.71;55.99;99539.16;1750936;81;20907;-71
2021/06/10 13:02:38;;;;;;;4.10;3.80;;;;;;;22.68;57.09;99532.04;1763011;80;21548;-70
2021/06/10 13:05:13;;;;;;;4.37;4.08;;;;;;;22.66;57.77;99530.89;1756163;80;21018;-68
2021/06/10 13:07:44;;;;;;;5.83;4.47;;;;;;;22.65;58.52;99531.89;1750086;82;21046;-69
2021/06/10 13:10:14;;;;;;;5.85;4.40;;;;;;;22.73;59.36;99540.30;1758668;80;21029;-69
2021/06/10 13:12:46;;;;;;;4.90;4.50;;;;;;;22.76;58.50;99535.97;1750069;81;20959;-70
2021/06/10 13:15:22;;;;;;;4.37;4.08;;;;;;;22.68;59.20;99537.34;1749303;80;21180;-71
2021/06/10 13:17:59;;;;;;;5.35;4.75;;;;;;;22.46;59.81;99535.80;1777142;80;21133;-69
2021/06/10 13:20:58;;;;;;;5.08;4.67;;;;;;;22.26;60.06;99526.64;1777425;80;21560;-68
2021/06/10 13:23:36;;;;;;;4.50;4.10;;;;;;;22.17;60.68;99519.22;1782965;80;20935;-68
2021/06/10 13:26:27;;;;;;;5.35;4.95;;;;;;;22.20;60.46;99524.18;1771484;80;20911;-68
2021/06/10 13:29:10;;;;;;;5.15;4.75;;;;;;;22.24;60.27;99523.34;1768533;80;20926;-69
2021/06/10 13:31:41;;;;;;;4.78;4.47;;;;;;;22.28;60.22;99519.34;1770428;80;21128;-69
2021/06/10 13:34:15;;;;;;;6.20;5.45;;;;;;;22.36;61.07;99515.33;1772899;80;20975;-69
2021/06/10 13:37:02;;;;;;;5.50;5.00;;;;;;;22.46;61.31;99518.56;1756126;81;20907;-71
2021/06/10 13:39:27;;;;;;;5.33;4.83;;;;;;;22.58;60.84;99515.84;1744440;82;21025;-69
2021/06/10 13:41:54;;;;;;;4.62;4.17;;;;;;;22.74;61.65;99510.11;1767790;81;20912;-69
2021/06/10 13:44:23;;;;;;;4.42;4.10;;;;;;;22.93;58.91;99518.94;1750108;82;21059;-68
2021/06/10 13:46:56;;;;;;;3.98;3.30;;;;;;;23.03;57.03;99518.20;1741840;81;21004;-68
2021/06/10 13:49:24;;;;;;;4.53;3.50;;;;;;;23.10;55.72;99512.50;1757438;80;21492;-71
2021/06/10 13:51:52;;;;;;;3.60;3.40;;;;;;;23.16;54.56;99514.45;1725377;80;21850;-68
2021/06/10 13:54:19;;;;;;;3.85;3.55;;;;;;;23.16;54.94;99514.95;1749279;81;21494;-72
2021/06/10 13:56:47;;;;;;;4.17;3.70;;;;;;;23.14;55.13;99523.09;1746945;81;21788;-72
2021/06/10 13:59:14;;;;;;;3.75;3.45;;;;;;;23.12;55.10;99519.79;1768228;80;21489;-69
2021/06/10 14:02:41;;;;;;;4.30;3.90;;;;;;;23.13;54.78;99524.09;1774939;80;20950;-69
2021/06/10 14:05:09;;;;;;;3.35;2.98;;;;;;;23.14;54.43;99521.77;1770467;80;21006;-69
